createdAt,value
2023-03-16T00:01:36.904Z,62.56
2023-03-16T00:04:06.411Z,62.03
2023-03-16T00:06:34.355Z,62.67
2023-03-16T00:09:02.288Z,63.44
2023-03-16T00:11:30.696Z,62.35
2023-03-16T00:13:58.868Z,62.85
2023-03-16T00:16:26.839Z,63.65
2023-03-16T00:18:54.754Z,63.36
2023-03-16T00:21:24.049Z,64.44
2023-03-16T00:23:53.484Z,64.21
2023-03-16T00:26:22.543Z,64.13
2023-03-16T00:28:54.308Z,64.25
2023-03-16T00:31:25.095Z,65.13
2023-03-16T00:33:53.154Z,64.84
2023-03-16T00:36:23.204Z,64.90
2023-03-16T00:38:51.493Z,64.26
2023-03-16T00:41:19.465Z,65.26
2023-03-16T00:43:48.955Z,64.44
2023-03-16T00:46:18.988Z,64.80
2023-03-16T00:48:48.310Z,64.23
2023-03-16T00:51:18.733Z,65.36
2023-03-16T00:53:48.689Z,64.78
2023-03-16T00:56:18.003Z,64.29
2023-03-16T00:58:45.976Z,65.09
2023-03-16T01:01:16.897Z,64.25
2023-03-16T01:03:44.848Z,64.88
2023-03-16T01:06:15.242Z,65.12
2023-03-16T01:08:43.223Z,64.94
2023-03-16T01:11:16.523Z,65.40
2023-03-16T01:13:47.143Z,64.80
2023-03-16T01:16:15.950Z,65.31
2023-03-16T01:18:43.905Z,64.90
2023-03-16T01:21:14.012Z,64.97
2023-03-16T01:23:44.158Z,65.20
2023-03-16T01:26:15.292Z,65.09
2023-03-16T01:28:44.534Z,64.58
2023-03-16T01:31:15.445Z,64.28
2023-03-16T01:33:44.489Z,65.05
2023-03-16T01:36:17.666Z,65.21
2023-03-16T01:38:54.125Z,65.23
2023-03-16T01:41:24.237Z,65.54
2023-03-16T01:43:53.742Z,64.73
2023-03-16T01:46:25.013Z,64.85
2023-03-16T01:49:09.212Z,65.55
2023-03-16T01:51:44.026Z,65.96
2023-03-16T01:54:19.430Z,66.62
2023-03-16T01:56:55.334Z,66.33
2023-03-16T01:59:27.260Z,66.24
2023-03-16T02:01:56.263Z,65.84
2023-03-16T02:04:33.851Z,66.09
2023-03-16T02:07:04.712Z,65.85
2023-03-16T02:09:33.164Z,66.06
2023-03-16T02:12:03.039Z,66.20
2023-03-16T02:14:33.206Z,66.10
2023-03-16T02:17:01.222Z,66.00
2023-03-16T02:19:42.791Z,65.10
2023-03-16T02:22:11.817Z,65.07
2023-03-16T02:24:39.723Z,65.40
2023-03-16T02:27:11.840Z,65.32
2023-03-16T02:29:55.371Z,65.59
2023-03-16T02:32:25.516Z,65.04
2023-03-16T02:34:53.616Z,64.88
2023-03-16T02:37:21.989Z,65.21
2023-03-16T02:39:50.320Z,65.12
2023-03-16T02:42:22.951Z,65.54
2023-03-16T02:44:56.926Z,66.29
2023-03-16T02:47:35.740Z,66.59
2023-03-16T02:50:06.756Z,66.75
2023-03-16T02:52:35.244Z,65.77
2023-03-16T02:55:03.756Z,66.53
2023-03-16T02:57:31.732Z,66.02
2023-03-16T03:00:11.637Z,66.53
2023-03-16T03:02:40.473Z,66.00
2023-03-16T03:05:08.997Z,66.29
2023-03-16T03:07:37.846Z,66.58
2023-03-16T03:10:08.944Z,66.25
2023-03-16T03:12:36.970Z,66.35
2023-03-16T03:15:11.182Z,66.91
2023-03-16T03:17:47.413Z,66.48
2023-03-16T03:20:17.571Z,67.08
2023-03-16T03:22:47.648Z,66.75
2023-03-16T03:25:18.402Z,66.93
2023-03-16T03:27:47.691Z,66.91
2023-03-16T03:30:21.163Z,66.88
2023-03-16T03:32:49.607Z,66.79
2023-03-16T03:35:20.159Z,67.55
2023-03-16T03:37:48.388Z,67.46
2023-03-16T03:40:19.743Z,68.08
2023-03-16T03:42:51.395Z,67.67
2023-03-16T03:45:20.827Z,67.28
2023-03-16T03:47:48.778Z,68.11
2023-03-16T03:50:21.094Z,67.36
2023-03-16T03:53:09.069Z,66.75
2023-03-16T03:55:49.931Z,66.89
2023-03-16T03:58:18.041Z,66.58
2023-03-16T04:00:47.518Z,66.88
2023-03-16T04:03:16.315Z,66.42
2023-03-16T04:05:46.256Z,67.43
2023-03-16T04:08:14.170Z,67.22
2023-03-16T04:10:42.437Z,66.95
2023-03-16T04:13:10.362Z,66.55
2023-03-16T04:15:39.498Z,67.37
2023-03-16T04:18:14.117Z,67.62
2023-03-16T04:20:43.205Z,67.62
2023-03-16T04:23:16.635Z,67.43
2023-03-16T04:25:45.470Z,67.79
2023-03-16T04:28:18.069Z,67.15
2023-03-16T04:30:48.895Z,67.11
2023-03-16T04:33:27.739Z,67.68
2023-03-16T04:35:56.189Z,67.74
2023-03-16T04:38:25.346Z,67.22
2023-03-16T04:40:56.803Z,67.71
2023-03-16T04:43:28.877Z,68.19
2023-03-16T04:46:04.164Z,67.91
2023-03-16T04:48:34.103Z,68.46
2023-03-16T04:51:04.105Z,68.23
2023-03-16T04:53:34.424Z,67.85
2023-03-16T04:56:10.461Z,67.98
2023-03-16T04:58:38.614Z,68.63
2023-03-16T05:01:08.182Z,68.51
2023-03-16T05:03:37.592Z,68.17
2023-03-16T05:06:05.795Z,68.42
2023-03-16T05:08:35.949Z,67.89
2023-03-16T05:11:03.956Z,67.23
2023-03-16T05:13:36.299Z,68.32
2023-03-16T05:16:06.122Z,69.01
2023-03-16T05:18:40.190Z,69.43
2023-03-16T05:21:08.229Z,69.65
2023-03-16T05:23:56.410Z,70.03
2023-03-16T05:26:25.505Z,70.31
2023-03-16T05:28:53.613Z,70.06
2023-03-16T05:31:26.616Z,69.81
2023-03-16T05:34:00.370Z,69.60
2023-03-16T05:36:28.333Z,68.93
2023-03-16T05:39:02.173Z,69.32
2023-03-16T05:41:37.847Z,69.28
2023-03-16T05:44:13.691Z,69.79
2023-03-16T05:47:05.177Z,69.70
2023-03-16T05:49:37.290Z,69.00
2023-03-16T05:52:10.201Z,68.68
2023-03-16T05:54:38.331Z,70.16
2023-03-16T05:57:07.090Z,69.85
2023-03-16T05:59:36.250Z,69.55
2023-03-16T06:02:05.343Z,69.49
2023-03-16T06:04:33.726Z,69.18
2023-03-16T06:07:03.259Z,69.09
2023-03-16T06:09:31.878Z,69.18
2023-03-16T06:12:00.540Z,68.95
2023-03-16T06:14:30.281Z,68.50
2023-03-16T06:16:58.473Z,69.11
2023-03-16T06:19:26.538Z,69.45
2023-03-16T06:21:59.638Z,69.48
2023-03-16T06:24:30.110Z,69.35
2023-03-16T06:26:58.031Z,69.78
2023-03-16T06:29:32.355Z,70.73
2023-03-16T06:32:01.732Z,71.05
2023-03-16T06:34:30.507Z,70.65
2023-03-16T06:36:58.602Z,69.18
2023-03-16T06:39:26.927Z,68.85
2023-03-16T06:41:56.912Z,68.53
2023-03-16T06:44:25.107Z,68.28
2023-03-16T06:47:10.454Z,67.97
2023-03-16T06:49:38.498Z,68.42
2023-03-16T06:52:15.018Z,68.49
2023-03-16T06:54:43.083Z,67.98
2023-03-16T06:57:13.977Z,68.58
2023-03-16T06:59:41.924Z,68.40
2023-03-16T07:02:12.030Z,66.74
2023-03-16T07:04:40.490Z,67.39
2023-03-16T07:07:08.732Z,68.69
2023-03-16T07:09:39.642Z,68.98
2023-03-16T07:12:09.555Z,68.10
2023-03-16T07:14:40.369Z,67.69
2023-03-16T07:17:11.437Z,67.00
2023-03-16T07:19:39.540Z,66.21
2023-03-16T07:22:07.743Z,65.71
2023-03-16T07:24:39.177Z,65.46
2023-03-16T07:27:07.311Z,65.52
2023-03-16T07:29:35.540Z,65.84
2023-03-16T07:32:07.168Z,65.43
2023-03-16T07:34:39.165Z,65.60
2023-03-16T07:37:09.170Z,65.37
2023-03-16T07:39:38.418Z,65.85
2023-03-16T07:42:11.277Z,64.57
2023-03-16T07:44:50.597Z,64.43
2023-03-16T07:47:21.290Z,63.89
2023-03-16T07:49:50.714Z,65.09
2023-03-16T07:52:19.089Z,64.76
2023-03-16T07:54:48.852Z,65.07
2023-03-16T07:57:17.018Z,66.12
2023-03-16T07:59:45.642Z,66.43
2023-03-16T08:02:18.233Z,66.82
2023-03-16T08:04:48.244Z,66.48
2023-03-16T08:07:17.382Z,65.01
2023-03-16T08:10:12.226Z,64.45
2023-03-16T08:12:52.675Z,64.38
2023-03-16T08:15:21.618Z,63.17
2023-03-16T08:17:52.475Z,63.02
2023-03-16T08:20:26.548Z,62.83
2023-03-16T08:22:55.141Z,62.74
2023-03-16T08:25:27.809Z,62.20
2023-03-16T08:28:10.725Z,62.39
2023-03-16T08:30:45.872Z,61.83
2023-03-16T08:33:26.111Z,62.05
2023-03-16T08:35:56.085Z,61.67
2023-03-16T08:38:24.285Z,62.21
2023-03-16T08:40:53.473Z,61.98
2023-03-16T08:43:24.012Z,61.74
2023-03-16T08:45:53.867Z,61.08
2023-03-16T08:48:25.953Z,60.00
2023-03-16T08:50:55.428Z,59.33
2023-03-16T08:53:23.408Z,59.77
2023-03-16T08:55:51.877Z,59.99
2023-03-16T08:58:19.969Z,60.03
2023-03-16T09:00:50.205Z,59.86
2023-03-16T09:03:18.416Z,59.38
2023-03-16T09:05:46.352Z,59.28
2023-03-16T09:08:15.667Z,58.58
2023-03-16T09:10:43.573Z,58.48
2023-03-16T09:13:11.585Z,57.98
2023-03-16T09:15:40.438Z,57.95
2023-03-16T09:18:08.351Z,57.61
2023-03-16T09:20:36.573Z,57.10
2023-03-16T09:23:04.941Z,57.69
2023-03-16T09:25:34.209Z,56.64
2023-03-16T09:28:02.132Z,57.59
2023-03-16T09:30:30.315Z,56.71
2023-03-16T09:32:58.484Z,56.77
2023-03-16T09:35:26.773Z,56.47
2023-03-16T09:38:05.686Z,55.76
2023-03-16T09:40:38.210Z,55.73
2023-03-16T09:43:24.921Z,55.75
2023-03-16T09:46:01.779Z,56.32
2023-03-16T09:48:31.772Z,55.30
2023-03-16T09:51:01.681Z,55.22
2023-03-16T09:53:31.446Z,54.59
2023-03-16T09:56:05.231Z,54.31
2023-03-16T09:58:33.328Z,54.96
2023-03-16T10:01:10.109Z,54.28
2023-03-16T10:03:59.079Z,52.71
2023-03-16T10:06:27.916Z,53.99
2023-03-16T10:09:04.986Z,53.58
2023-03-16T10:11:38.490Z,54.09
2023-03-16T10:14:17.709Z,53.50
2023-03-16T10:16:51.340Z,53.51
2023-03-16T10:19:23.502Z,53.48
2023-03-16T10:21:56.009Z,53.78
2023-03-16T10:24:41.110Z,53.92
2023-03-16T10:27:20.503Z,52.26
2023-03-16T10:29:48.852Z,53.12
2023-03-16T10:32:20.004Z,52.54
2023-03-16T10:34:54.980Z,53.71
2023-03-16T10:37:25.455Z,53.86
2023-03-16T10:39:54.938Z,54.95
2023-03-16T10:42:27.131Z,54.19
2023-03-16T10:45:01.771Z,53.32
2023-03-16T10:47:32.909Z,53.53
2023-03-16T10:50:11.587Z,53.01
2023-03-16T10:52:42.970Z,51.41
2023-03-16T10:55:16.974Z,51.42
2023-03-16T10:57:51.394Z,52.44
2023-03-16T11:00:23.296Z,52.50
2023-03-16T11:02:53.681Z,52.77
2023-03-16T11:05:32.725Z,51.89
2023-03-16T11:08:03.713Z,51.98
2023-03-16T11:10:40.447Z,51.81
2023-03-16T11:13:18.870Z,50.25
2023-03-16T11:15:52.030Z,49.75
2023-03-16T11:18:39.759Z,47.89
2023-03-16T11:21:14.132Z,50.72
2023-03-16T11:23:49.825Z,49.49
2023-03-16T11:26:25.316Z,49.94
2023-03-16T11:29:03.655Z,49.32
2023-03-16T11:31:42.712Z,48.12
2023-03-16T11:34:17.660Z,48.22
2023-03-16T11:36:51.364Z,49.55
2023-03-16T11:39:32.277Z,49.77
2023-03-16T11:42:13.197Z,49.35
2023-03-16T11:44:51.546Z,48.62
2023-03-16T11:47:49.111Z,47.91
2023-03-16T11:50:23.298Z,48.80
2023-03-16T11:53:02.420Z,46.81
2023-03-16T11:55:40.891Z,46.75
2023-03-16T11:58:29.220Z,46.06
2023-03-16T12:01:08.727Z,45.82
2023-03-16T12:04:02.939Z,43.41
2023-03-16T12:06:47.065Z,43.63
2023-03-16T12:09:48.204Z,42.82
2023-03-16T12:12:29.584Z,46.25
2023-03-16T12:15:16.548Z,45.29
2023-03-16T12:17:48.064Z,44.90
2023-03-16T12:20:21.271Z,43.23
2023-03-16T12:22:53.646Z,43.78
2023-03-16T12:25:24.836Z,43.67
2023-03-16T12:27:55.548Z,42.99
2023-03-16T12:30:36.205Z,43.83
2023-03-16T12:33:13.757Z,44.39
2023-03-16T12:35:47.878Z,43.12
2023-03-16T12:38:23.769Z,43.04
2023-03-16T12:41:01.151Z,43.15
2023-03-16T12:43:47.633Z,42.36
2023-03-16T12:46:27.065Z,42.83
2023-03-16T12:49:00.318Z,41.94
2023-03-16T12:51:35.692Z,40.98
2023-03-16T12:54:05.681Z,42.50
2023-03-16T12:56:36.739Z,43.50
2023-03-16T12:59:07.615Z,43.53
2023-03-16T13:01:40.128Z,44.24
2023-03-16T13:04:14.275Z,42.86
2023-03-16T13:06:47.500Z,42.67
2023-03-16T13:09:21.580Z,42.30
2023-03-16T13:11:51.268Z,42.74
2023-03-16T13:14:35.721Z,39.17
2023-03-16T13:17:23.836Z,41.01
2023-03-16T13:20:08.941Z,41.08
2023-03-16T13:22:47.353Z,42.10
2023-03-16T13:25:18.774Z,41.96
2023-03-16T13:27:49.597Z,40.83
2023-03-16T13:30:20.645Z,40.74
2023-03-16T13:32:49.625Z,40.85
2023-03-16T13:35:20.517Z,40.61
2023-03-16T13:37:49.800Z,40.13
2023-03-16T13:40:20.789Z,40.18
2023-03-16T13:42:52.894Z,39.96
2023-03-16T13:45:24.237Z,40.33
2023-03-16T13:47:52.603Z,40.14
2023-03-16T13:50:22.165Z,40.21
2023-03-16T13:52:58.738Z,40.02
2023-03-16T13:55:32.739Z,40.89
2023-03-16T13:58:01.812Z,39.84
2023-03-16T14:00:34.658Z,39.09
2023-03-16T14:03:12.863Z,38.66
2023-03-16T14:05:42.169Z,39.91
2023-03-16T14:08:17.058Z,39.81
2023-03-16T14:10:46.801Z,38.57
2023-03-16T14:13:36.292Z,37.54
2023-03-16T14:16:12.977Z,39.02
2023-03-16T14:18:43.691Z,38.94
2023-03-16T14:21:17.826Z,39.79
2023-03-16T14:23:49.308Z,40.76
2023-03-16T14:26:19.416Z,39.22
2023-03-16T14:28:57.496Z,39.15
2023-03-16T14:31:33.619Z,38.37
2023-03-16T14:34:03.845Z,38.75
2023-03-16T14:36:38.662Z,39.12
2023-03-16T14:39:14.356Z,39.57
2023-03-16T14:41:42.406Z,38.87
2023-03-16T14:44:21.589Z,39.16
2023-03-16T14:46:50.716Z,39.75
2023-03-16T14:49:22.107Z,40.14
2023-03-16T14:51:54.832Z,39.63
2023-03-16T14:54:23.920Z,40.79
2023-03-16T14:56:54.339Z,40.65
2023-03-16T14:59:23.012Z,40.12
2023-03-16T15:01:53.559Z,39.74
2023-03-16T15:04:27.902Z,39.98
2023-03-16T15:06:58.270Z,41.14
2023-03-16T15:09:32.766Z,41.16
2023-03-16T15:12:00.804Z,41.71
2023-03-16T15:14:42.713Z,41.58
2023-03-16T15:17:11.019Z,41.40
2023-03-16T15:19:38.919Z,40.77
2023-03-16T15:22:08.808Z,39.99
2023-03-16T15:24:37.241Z,40.76
2023-03-16T15:27:09.929Z,41.57
2023-03-16T15:29:38.222Z,40.88
2023-03-16T15:32:08.155Z,41.61
2023-03-16T15:34:36.114Z,41.01
2023-03-16T15:37:04.442Z,40.23
2023-03-16T15:39:33.860Z,40.18
2023-03-16T15:42:01.815Z,39.63
2023-03-16T15:44:29.680Z,39.92
2023-03-16T15:46:57.645Z,39.70
2023-03-16T15:49:27.047Z,40.13
2023-03-16T15:51:56.497Z,39.71
2023-03-16T15:54:24.698Z,40.16
2023-03-16T15:56:56.009Z,38.89
2023-03-16T15:59:27.137Z,39.09
2023-03-16T16:01:55.045Z,39.56
2023-03-16T16:04:25.111Z,39.45
2023-03-16T16:06:55.435Z,39.89
2023-03-16T16:09:24.148Z,39.92
2023-03-16T16:11:53.644Z,38.44
2023-03-16T16:14:25.967Z,38.00
2023-03-16T16:16:54.917Z,38.22
2023-03-16T16:19:22.991Z,38.55
2023-03-16T16:21:50.894Z,37.86
2023-03-16T16:24:19.335Z,38.50
2023-03-16T16:26:54.424Z,37.66
2023-03-16T16:29:27.179Z,37.85
2023-03-16T16:31:55.428Z,37.67
2023-03-16T16:34:25.587Z,37.65
2023-03-16T16:36:53.959Z,37.79
2023-03-16T16:39:22.157Z,37.91
2023-03-16T16:41:52.259Z,37.85
2023-03-16T16:44:23.618Z,37.87
2023-03-16T16:46:53.715Z,38.02
2023-03-16T16:49:24.827Z,37.55
2023-03-16T16:51:53.678Z,38.21
2023-03-16T16:54:23.352Z,38.18
2023-03-16T16:56:53.897Z,37.47
2023-03-16T16:59:23.777Z,38.27
2023-03-16T17:01:54.413Z,37.93
2023-03-16T17:04:24.875Z,38.45
2023-03-16T17:06:55.741Z,38.62
2023-03-16T17:09:24.329Z,39.36
2023-03-16T17:11:52.319Z,39.57
2023-03-16T17:14:21.778Z,39.34
2023-03-16T17:16:51.664Z,39.21
2023-03-16T17:19:23.303Z,39.83
2023-03-16T17:21:52.229Z,39.86
2023-03-16T17:24:20.109Z,39.56
2023-03-16T17:26:52.292Z,39.51
2023-03-16T17:29:24.355Z,40.12
2023-03-16T17:31:52.916Z,40.11
2023-03-16T17:34:23.999Z,41.43
2023-03-16T17:36:52.438Z,42.44
2023-03-16T17:39:21.767Z,43.69
2023-03-16T17:41:52.363Z,44.41
2023-03-16T17:44:21.438Z,45.02
2023-03-16T17:46:49.803Z,45.82
2023-03-16T17:49:20.705Z,45.83
2023-03-16T17:51:50.060Z,46.20
2023-03-16T17:54:18.072Z,46.46
2023-03-16T17:56:46.665Z,46.95
2023-03-16T17:59:18.823Z,47.16
2023-03-16T18:01:47.958Z,47.38
2023-03-16T18:04:17.753Z,48.03
2023-03-16T18:06:47.602Z,48.29
2023-03-16T18:09:17.917Z,48.36
2023-03-16T18:11:48.285Z,48.88
2023-03-16T18:14:25.406Z,48.98
2023-03-16T18:16:54.612Z,49.07
2023-03-16T18:19:25.380Z,48.90
2023-03-16T18:21:54.214Z,49.01
2023-03-16T18:24:26.587Z,49.25
2023-03-16T18:26:55.312Z,49.63
2023-03-16T18:29:24.108Z,49.80
2023-03-16T18:31:56.188Z,50.38
2023-03-16T18:34:28.806Z,50.18
2023-03-16T18:36:59.723Z,50.71
2023-03-16T18:39:29.066Z,49.92
2023-03-16T18:41:57.054Z,50.80
2023-03-16T18:44:26.824Z,50.42
2023-03-16T18:47:01.773Z,51.05
2023-03-16T18:49:34.097Z,50.59
2023-03-16T18:52:02.102Z,51.31
2023-03-16T18:54:35.575Z,51.32
2023-03-16T18:57:04.809Z,50.96
2023-03-16T18:59:32.812Z,51.17
2023-03-16T19:02:00.963Z,50.93
2023-03-16T19:04:32.696Z,51.50
2023-03-16T19:07:00.830Z,51.22
2023-03-16T19:09:33.199Z,51.33
2023-03-16T19:12:03.707Z,51.97
2023-03-16T19:14:34.598Z,52.91
2023-03-16T19:17:02.571Z,52.12
2023-03-16T19:19:30.494Z,52.65
2023-03-16T19:22:03.436Z,52.09
2023-03-16T19:24:36.514Z,52.72
2023-03-16T19:27:05.411Z,53.05
2023-03-16T19:29:35.642Z,53.10
2023-03-16T19:32:03.707Z,52.62
2023-03-16T19:34:31.796Z,53.25
2023-03-16T19:36:59.711Z,53.27
2023-03-16T19:39:27.862Z,53.46
2023-03-16T19:41:59.440Z,54.20
2023-03-16T19:44:29.357Z,54.50
2023-03-16T19:46:59.164Z,54.34
2023-03-16T19:49:29.385Z,54.87
2023-03-16T19:51:57.793Z,54.92
2023-03-16T19:54:27.632Z,55.17
2023-03-16T19:57:00.336Z,55.37
2023-03-16T19:59:33.916Z,55.57
2023-03-16T20:02:02.326Z,55.90
2023-03-16T20:04:30.686Z,55.49
2023-03-16T20:06:58.630Z,55.95
2023-03-16T20:09:27.442Z,56.24
2023-03-16T20:11:55.329Z,57.23
2023-03-16T20:14:30.731Z,56.80
2023-03-16T20:16:59.135Z,56.27
2023-03-16T20:19:27.068Z,55.62
2023-03-16T20:21:54.999Z,56.86
2023-03-16T20:24:23.306Z,56.64
2023-03-16T20:26:53.598Z,57.38
2023-03-16T20:29:28.485Z,56.66
2023-03-16T20:31:56.955Z,57.60
2023-03-16T20:34:27.204Z,57.17
2023-03-16T20:36:55.868Z,57.62
2023-03-16T20:39:23.814Z,57.87
2023-03-16T20:41:52.723Z,58.35
2023-03-16T20:44:23.570Z,58.94
2023-03-16T20:46:52.931Z,57.66
2023-03-16T20:49:32.772Z,58.84
2023-03-16T20:52:00.717Z,58.69
2023-03-16T20:54:28.615Z,59.24
2023-03-16T20:56:56.592Z,59.19
2023-03-16T20:59:26.555Z,59.20
2023-03-16T21:01:56.378Z,59.61
2023-03-16T21:04:27.298Z,59.15
2023-03-16T21:06:57.595Z,59.86
2023-03-16T21:09:25.711Z,59.26
2023-03-16T21:11:53.590Z,59.53
2023-03-16T21:14:24.402Z,60.18
2023-03-16T21:16:54.244Z,60.77
2023-03-16T21:19:24.902Z,60.67
2023-03-16T21:21:53.149Z,60.36
2023-03-16T21:24:21.190Z,60.71
2023-03-16T21:26:49.202Z,60.87
2023-03-16T21:29:21.253Z,62.11
2023-03-16T21:31:49.556Z,61.32
2023-03-16T21:34:26.196Z,62.32
2023-03-16T21:36:54.200Z,61.94
2023-03-16T21:39:25.156Z,61.99
2023-03-16T21:41:53.574Z,61.64
2023-03-16T21:44:21.840Z,61.49
2023-03-16T21:46:49.892Z,61.75
2023-03-16T21:49:18.064Z,62.09
2023-03-16T21:51:47.735Z,61.75
2023-03-16T21:54:16.908Z,62.60
2023-03-16T21:56:45.925Z,62.14
2023-03-16T21:59:13.874Z,62.50
2023-03-16T22:01:58.249Z,62.93
2023-03-16T22:04:26.640Z,62.66
2023-03-16T22:06:55.929Z,62.81
2023-03-16T22:09:24.970Z,62.21
2023-03-16T22:11:52.905Z,62.58
2023-03-16T22:14:20.861Z,62.83
2023-03-16T22:16:48.763Z,63.21
2023-03-16T22:19:17.936Z,63.23
2023-03-16T22:21:48.455Z,63.40
2023-03-16T22:24:19.715Z,63.44
2023-03-16T22:26:49.044Z,62.80
2023-03-16T22:29:25.361Z,63.44
2023-03-16T22:31:56.964Z,63.26
2023-03-16T22:34:29.853Z,63.87
2023-03-16T22:36:58.628Z,63.33
2023-03-16T22:39:28.009Z,63.38
2023-03-16T22:41:55.942Z,63.78
2023-03-16T22:44:24.918Z,64.25
2023-03-16T22:46:52.972Z,63.65
2023-03-16T22:49:23.873Z,63.28
2023-03-16T22:51:53.793Z,63.46
2023-03-16T22:54:25.416Z,63.46
2023-03-16T22:56:54.983Z,63.56
2023-03-16T22:59:26.160Z,63.83
2023-03-16T23:01:54.255Z,64.30
2023-03-16T23:04:24.516Z,63.68
2023-03-16T23:06:54.664Z,63.62
2023-03-16T23:09:23.372Z,63.93
2023-03-16T23:11:54.242Z,63.81
2023-03-16T23:14:25.225Z,64.36
2023-03-16T23:16:53.604Z,63.96
2023-03-16T23:19:25.361Z,64.62
2023-03-16T23:21:54.750Z,64.41
2023-03-16T23:24:22.939Z,63.97
2023-03-16T23:26:52.046Z,64.08
2023-03-16T23:29:20.818Z,64.44
2023-03-16T23:31:50.394Z,64.77
2023-03-16T23:34:20.088Z,64.94
2023-03-16T23:36:48.045Z,65.34
2023-03-16T23:39:16.167Z,65.77
2023-03-16T23:41:46.785Z,65.46
2023-03-16T23:44:17.716Z,65.08
2023-03-16T23:46:45.903Z,64.80
2023-03-16T23:49:20.337Z,65.32
2023-03-16T23:51:48.277Z,64.23
2023-03-16T23:54:19.479Z,65.09
2023-03-16T23:56:47.578Z,64.52
2023-03-16T23:59:16.429Z,64.60
